createdAt,value
2017-03-03T00:00:53.020Z,0
2017-03-03T00:02:01.900Z,0
2017-03-03T00:03:11.195Z,0
2017-03-03T00:04:20.129Z,0
2017-03-03T00:05:29.031Z,0
2017-03-03T00:06:37.924Z,0
2017-03-03T00:07:46.807Z,0
2017-03-03T00:08:55.692Z,0
2017-03-03T00:10:04.584Z,0
2017-03-03T00:11:13.494Z,0
2017-03-03T00:12:22.805Z,0
2017-03-03T00:13:31.698Z,0
2017-03-03T00:14:40.591Z,0
2017-03-03T00:15:49.506Z,0
2017-03-03T00:16:58.396Z,0
2017-03-03T00:18:07.318Z,0
2017-03-03T00:19:16.193Z,0
2017-03-03T00:20:25.106Z,0
2017-03-03T00:21:34.002Z,0
2017-03-03T00:22:42.888Z,0
2017-03-03T00:23:51.782Z,0
2017-03-03T00:25:00.989Z,0
2017-03-03T00:26:09.918Z,0
2017-03-03T00:27:18.809Z,0
2017-03-03T00:28:28.644Z,0
2017-03-03T00:29:37.558Z,0
2017-03-03T00:30:46.482Z,0
2017-03-03T00:31:55.372Z,0
2017-03-03T00:33:04.690Z,0
2017-03-03T00:34:14.006Z,0
2017-03-03T00:35:22.921Z,0
2017-03-03T00:36:31.815Z,0
2017-03-03T00:37:40.724Z,0
2017-03-03T00:38:49.618Z,0
2017-03-03T00:39:58.528Z,0
2017-03-03T00:41:07.411Z,0
2017-03-03T00:42:16.303Z,0
2017-03-03T00:43:25.194Z,0
2017-03-03T00:44:34.110Z,0
2017-03-03T00:45:42.997Z,0
2017-03-03T00:46:51.882Z,0
2017-03-03T00:48:00.791Z,0
2017-03-03T00:49:09.683Z,0
2017-03-03T00:50:18.564Z,0
2017-03-03T00:51:27.448Z,0
2017-03-03T00:52:36.328Z,0
2017-03-03T00:53:45.215Z,0
2017-03-03T00:54:54.121Z,0
2017-03-03T00:56:03.002Z,0
2017-03-03T00:57:11.909Z,0
2017-03-03T00:58:20.801Z,0
2017-03-03T00:59:29.721Z,0
2017-03-03T01:00:38.608Z,0
2017-03-03T01:01:47.885Z,0
2017-03-03T01:02:56.779Z,0
2017-03-03T01:04:05.669Z,0
2017-03-03T01:05:14.552Z,0
2017-03-03T01:06:23.464Z,0
2017-03-03T01:07:32.771Z,0
2017-03-03T01:08:41.658Z,0
2017-03-03T01:09:50.558Z,0
2017-03-03T01:10:59.433Z,0
2017-03-03T01:12:08.379Z,0
2017-03-03T01:13:17.662Z,0
2017-03-03T01:14:26.545Z,0
2017-03-03T01:15:35.471Z,0
2017-03-03T01:16:44.352Z,0
2017-03-03T01:17:53.241Z,0
2017-03-03T01:19:02.111Z,0
2017-03-03T01:20:17.283Z,0
2017-03-03T01:21:26.175Z,0
2017-03-03T01:22:35.082Z,0
2017-03-03T01:23:43.981Z,0
2017-03-03T01:24:52.898Z,0
2017-03-03T01:26:01.786Z,0
2017-03-03T01:27:10.673Z,0
2017-03-03T01:28:19.570Z,0
2017-03-03T01:29:28.455Z,0
2017-03-03T01:30:37.355Z,0
2017-03-03T01:31:46.263Z,0
2017-03-03T01:32:55.141Z,0
2017-03-03T01:34:04.036Z,0
2017-03-03T01:35:12.956Z,0
2017-03-03T01:36:22.250Z,0
2017-03-03T01:37:31.147Z,0
2017-03-03T01:38:40.037Z,0
2017-03-03T01:39:48.922Z,0
2017-03-03T01:40:57.807Z,0
2017-03-03T01:42:06.698Z,0
2017-03-03T01:43:15.626Z,0
2017-03-03T01:44:24.525Z,0
2017-03-03T01:45:33.426Z,0
2017-03-03T01:46:42.305Z,0
2017-03-03T01:47:51.213Z,0
2017-03-03T01:49:00.094Z,0
2017-03-03T01:50:08.973Z,0
2017-03-03T01:51:17.848Z,0
2017-03-03T01:52:26.735Z,0
2017-03-03T01:53:35.618Z,0
2017-03-03T01:54:44.533Z,0
2017-03-03T01:55:53.433Z,0
2017-03-03T01:57:02.340Z,0
2017-03-03T01:58:11.257Z,0
2017-03-03T01:59:20.167Z,0
2017-03-03T02:00:29.041Z,0
2017-03-03T02:01:37.965Z,0
2017-03-03T02:02:46.843Z,0
2017-03-03T02:03:55.810Z,0
2017-03-03T02:05:05.517Z,0
2017-03-03T02:06:14.844Z,0
2017-03-03T02:07:23.735Z,0
2017-03-03T02:08:32.619Z,0
2017-03-03T02:09:41.494Z,0
2017-03-03T02:10:50.395Z,0
2017-03-03T02:11:59.289Z,0
2017-03-03T02:13:08.582Z,0
2017-03-03T02:14:17.483Z,0
2017-03-03T02:15:26.367Z,0
2017-03-03T02:16:35.237Z,0
2017-03-03T02:17:44.117Z,0
2017-03-03T02:18:53.013Z,0
2017-03-03T02:20:01.889Z,0
2017-03-03T02:21:10.801Z,0
2017-03-03T02:22:19.685Z,0
2017-03-03T02:23:28.588Z,0
2017-03-03T02:24:37.902Z,0
2017-03-03T02:25:46.792Z,0
2017-03-03T02:26:55.689Z,0
2017-03-03T02:28:04.588Z,0
2017-03-03T02:29:13.470Z,0
2017-03-03T02:30:22.765Z,0
2017-03-03T02:31:31.678Z,0
2017-03-03T02:32:40.598Z,0
2017-03-03T02:33:49.487Z,0
2017-03-03T02:34:58.428Z,0
2017-03-03T02:36:07.307Z,0
2017-03-03T02:37:16.204Z,0
2017-03-03T02:38:25.098Z,0
2017-03-03T02:39:34.001Z,0
2017-03-03T02:40:42.884Z,0
2017-03-03T02:41:51.784Z,0
2017-03-03T02:43:00.688Z,0
2017-03-03T02:44:09.569Z,0
2017-03-03T02:45:18.452Z,0
2017-03-03T02:46:27.370Z,0
2017-03-03T02:47:36.292Z,0
2017-03-03T02:48:45.598Z,0
2017-03-03T02:49:54.485Z,0
2017-03-03T02:51:03.376Z,0
2017-03-03T02:52:12.284Z,0
2017-03-03T02:53:21.195Z,0
2017-03-03T02:54:30.109Z,0
2017-03-03T02:55:38.986Z,0
2017-03-03T02:56:47.863Z,0
2017-03-03T02:57:57.142Z,0
2017-03-03T02:59:06.029Z,0
2017-03-03T03:00:14.922Z,0
2017-03-03T03:01:23.833Z,0
2017-03-03T03:02:32.724Z,0
2017-03-03T03:03:41.615Z,0
2017-03-03T03:04:50.485Z,0
2017-03-03T03:05:59.389Z,0
2017-03-03T03:07:08.291Z,0
2017-03-03T03:08:17.185Z,0
2017-03-03T03:09:26.084Z,0
2017-03-03T03:10:34.978Z,0
2017-03-03T03:11:43.855Z,0
2017-03-03T03:12:52.731Z,0
2017-03-03T03:14:01.634Z,0
2017-03-03T03:15:10.923Z,0
2017-03-03T03:16:19.842Z,0
2017-03-03T03:17:28.716Z,0
2017-03-03T03:18:37.605Z,0
2017-03-03T03:19:46.501Z,0
2017-03-03T03:20:55.406Z,0
2017-03-03T03:22:04.291Z,0
2017-03-03T03:23:13.598Z,0
2017-03-03T03:24:22.475Z,0
2017-03-03T03:25:31.363Z,0
2017-03-03T03:26:40.297Z,0
2017-03-03T03:27:49.196Z,0
2017-03-03T03:28:58.074Z,0
2017-03-03T03:30:06.950Z,0
2017-03-03T03:31:15.836Z,0
2017-03-03T03:32:25.130Z,0
2017-03-03T03:33:34.044Z,0
2017-03-03T03:34:42.945Z,0
2017-03-03T03:35:51.869Z,0
2017-03-03T03:37:00.784Z,0
2017-03-03T03:38:10.086Z,0
2017-03-03T03:39:19.021Z,0
2017-03-03T03:40:27.922Z,0
2017-03-03T03:41:36.816Z,0
2017-03-03T03:42:45.741Z,0
2017-03-03T03:43:54.654Z,0
2017-03-03T03:45:03.548Z,0
2017-03-03T03:46:12.429Z,0
2017-03-03T03:47:21.319Z,0
2017-03-03T03:48:30.196Z,0
2017-03-03T03:49:39.106Z,0
2017-03-03T03:50:48.012Z,0
2017-03-03T03:51:57.098Z,0
2017-03-03T03:53:05.985Z,0
2017-03-03T03:54:14.876Z,0
2017-03-03T03:55:23.796Z,0
2017-03-03T03:56:32.686Z,0
2017-03-03T03:57:41.594Z,0
2017-03-03T03:58:50.485Z,0
2017-03-03T03:59:59.363Z,0
2017-03-03T04:01:08.280Z,0
2017-03-03T04:02:17.213Z,0
2017-03-03T04:03:26.118Z,0
2017-03-03T04:04:35.045Z,0
2017-03-03T04:05:43.983Z,0
2017-03-03T04:06:52.886Z,0
2017-03-03T04:08:01.776Z,0
2017-03-03T04:09:10.671Z,0
2017-03-03T04:10:19.552Z,0
2017-03-03T04:11:28.470Z,0
2017-03-03T04:12:37.374Z,0
2017-03-03T04:13:46.290Z,0
2017-03-03T04:14:55.205Z,0
2017-03-03T04:16:04.513Z,0
2017-03-03T04:17:13.420Z,0
2017-03-03T04:18:22.314Z,0
2017-03-03T04:19:31.196Z,0
2017-03-03T04:20:40.107Z,0
2017-03-03T04:21:48.991Z,0
2017-03-03T04:22:57.868Z,0
2017-03-03T04:24:06.758Z,0
2017-03-03T04:25:15.648Z,0
2017-03-03T04:26:24.523Z,0
2017-03-03T04:27:33.400Z,0
2017-03-03T04:28:42.326Z,0
2017-03-03T04:29:51.213Z,0
2017-03-03T04:31:00.126Z,0
2017-03-03T04:32:09.042Z,0
2017-03-03T04:33:17.946Z,0
2017-03-03T04:34:26.850Z,0
2017-03-03T04:35:35.736Z,0
2017-03-03T04:36:44.646Z,0
2017-03-03T04:37:53.551Z,0
2017-03-03T04:39:02.453Z,0
2017-03-03T04:40:11.752Z,0
2017-03-03T04:41:20.692Z,0
2017-03-03T04:42:29.594Z,0
2017-03-03T04:43:38.472Z,0
2017-03-03T04:44:47.363Z,0
2017-03-03T04:45:56.650Z,0
2017-03-03T04:47:05.964Z,0
2017-03-03T04:48:14.841Z,0
2017-03-03T04:49:23.736Z,0
2017-03-03T04:50:32.636Z,0
2017-03-03T04:51:41.518Z,0
2017-03-03T04:52:50.397Z,0
2017-03-03T04:53:59.293Z,0
2017-03-03T04:55:08.174Z,0
2017-03-03T04:56:17.055Z,0
2017-03-03T04:57:25.934Z,0
2017-03-03T04:58:34.857Z,0
2017-03-03T04:59:43.749Z,0
2017-03-03T05:00:52.653Z,0
2017-03-03T05:02:01.572Z,0
2017-03-03T05:03:10.462Z,0
2017-03-03T05:04:19.347Z,0
2017-03-03T05:05:28.255Z,0
2017-03-03T05:06:37.152Z,0
2017-03-03T05:07:46.037Z,0
2017-03-03T05:08:55.027Z,0
2017-03-03T05:10:03.907Z,0
2017-03-03T05:11:12.788Z,0
2017-03-03T05:12:21.670Z,0
2017-03-03T05:13:30.559Z,0
2017-03-03T05:14:39.481Z,0
2017-03-03T05:15:48.375Z,0
2017-03-03T05:16:57.273Z,0
2017-03-03T05:18:06.196Z,0
2017-03-03T05:19:15.084Z,0
2017-03-03T05:20:23.957Z,0
2017-03-03T05:21:32.833Z,0
2017-03-03T05:22:42.112Z,0
2017-03-03T05:23:51.004Z,0
2017-03-03T05:25:00.099Z,0
2017-03-03T05:26:09.008Z,0
2017-03-03T05:27:17.910Z,0
2017-03-03T05:28:26.829Z,0
2017-03-03T05:29:36.115Z,0
2017-03-03T05:30:45.018Z,0
2017-03-03T05:31:53.925Z,4
2017-03-03T05:33:03.249Z,4
2017-03-03T05:34:12.152Z,0
2017-03-03T05:35:21.478Z,4
2017-03-03T05:36:30.367Z,4
2017-03-03T05:37:39.268Z,4
2017-03-03T05:38:48.211Z,4
2017-03-03T05:39:57.098Z,8
2017-03-03T05:41:05.985Z,8
2017-03-03T05:42:14.896Z,8
2017-03-03T05:43:23.780Z,12
2017-03-03T05:44:32.685Z,12
2017-03-03T05:45:41.574Z,16
2017-03-03T05:46:50.458Z,16
2017-03-03T05:47:59.352Z,16
2017-03-03T05:49:08.663Z,20
2017-03-03T05:50:17.546Z,20
2017-03-03T05:51:26.439Z,20
2017-03-03T05:52:35.361Z,28
2017-03-03T05:53:44.276Z,32
2017-03-03T05:54:53.188Z,32
2017-03-03T05:56:02.111Z,36
2017-03-03T05:57:11.001Z,40
2017-03-03T05:58:19.911Z,40
2017-03-03T05:59:28.826Z,44
2017-03-03T06:00:38.124Z,48
2017-03-03T06:01:47.432Z,52
2017-03-03T06:02:56.335Z,56
2017-03-03T06:04:05.243Z,60
2017-03-03T06:05:14.118Z,60
2017-03-03T06:06:23.022Z,68
2017-03-03T06:07:31.920Z,64
2017-03-03T06:08:40.836Z,72
2017-03-03T06:09:49.762Z,76
2017-03-03T06:10:59.095Z,80
2017-03-03T06:12:08.831Z,84
2017-03-03T06:13:17.720Z,84
2017-03-03T06:14:26.603Z,84
2017-03-03T06:15:35.476Z,84
2017-03-03T06:16:44.357Z,88
2017-03-03T06:17:53.241Z,88
2017-03-03T06:19:02.127Z,88
2017-03-03T06:20:11.417Z,88
2017-03-03T06:21:20.344Z,92
2017-03-03T06:22:29.257Z,88
2017-03-03T06:23:38.171Z,92
2017-03-03T06:24:47.089Z,92
2017-03-03T06:25:55.982Z,92
2017-03-03T06:27:04.874Z,92
2017-03-03T06:28:13.795Z,92
2017-03-03T06:29:22.694Z,92
2017-03-03T06:30:31.573Z,96
2017-03-03T06:31:40.480Z,100
2017-03-03T06:32:49.381Z,100
2017-03-03T06:33:58.287Z,108
2017-03-03T06:35:07.189Z,112
2017-03-03T06:36:16.084Z,120
2017-03-03T06:37:25.365Z,124
2017-03-03T06:38:34.248Z,132
2017-03-03T06:39:43.134Z,140
2017-03-03T06:40:52.067Z,144
2017-03-03T06:42:00.961Z,148
2017-03-03T06:43:09.842Z,152
2017-03-03T06:44:18.736Z,152
2017-03-03T06:45:27.631Z,152
2017-03-03T06:46:36.551Z,156
2017-03-03T06:47:45.453Z,160
2017-03-03T06:48:54.373Z,164
2017-03-03T06:50:03.286Z,168
2017-03-03T06:51:12.179Z,172
2017-03-03T06:52:21.079Z,176
2017-03-03T06:53:29.987Z,176
2017-03-03T06:54:38.894Z,184
2017-03-03T06:55:47.802Z,188
2017-03-03T06:56:56.686Z,192
2017-03-03T06:58:05.961Z,196
2017-03-03T06:59:15.261Z,200
2017-03-03T07:00:24.194Z,200
2017-03-03T07:01:33.517Z,200
2017-03-03T07:02:42.402Z,200
2017-03-03T07:03:51.302Z,200
2017-03-03T07:05:00.211Z,200
2017-03-03T07:06:09.096Z,200
2017-03-03T07:07:17.987Z,196
2017-03-03T07:08:26.899Z,204
2017-03-03T07:09:35.787Z,208
2017-03-03T07:10:44.713Z,212
2017-03-03T07:11:53.591Z,212
2017-03-03T07:13:02.526Z,216
2017-03-03T07:14:11.421Z,228
2017-03-03T07:15:20.312Z,240
2017-03-03T07:16:29.199Z,248
2017-03-03T07:17:38.111Z,256
2017-03-03T07:18:47.016Z,256
2017-03-03T07:19:55.921Z,248
2017-03-03T07:21:04.801Z,252
2017-03-03T07:22:13.679Z,252
2017-03-03T07:23:22.583Z,252
2017-03-03T07:24:31.500Z,256
2017-03-03T07:25:40.389Z,252
2017-03-03T07:26:49.290Z,248
2017-03-03T07:27:58.183Z,252
2017-03-03T07:29:07.068Z,264
2017-03-03T07:30:15.971Z,268
2017-03-03T07:31:24.887Z,272
2017-03-03T07:32:33.782Z,276
2017-03-03T07:33:42.661Z,296
2017-03-03T07:34:51.565Z,300
2017-03-03T07:36:00.886Z,308
2017-03-03T07:37:09.791Z,308
2017-03-03T07:38:18.697Z,312
2017-03-03T07:39:27.592Z,312
2017-03-03T07:40:36.488Z,304
2017-03-03T07:41:45.363Z,308
2017-03-03T07:42:54.266Z,312
2017-03-03T07:44:03.154Z,320
2017-03-03T07:45:12.028Z,328
2017-03-03T07:46:20.929Z,332
2017-03-03T07:47:29.833Z,332
2017-03-03T07:48:39.132Z,328
2017-03-03T07:49:48.023Z,320
2017-03-03T07:50:56.914Z,320
2017-03-03T07:52:06.245Z,324
2017-03-03T07:53:15.160Z,320
2017-03-03T07:54:24.071Z,308
2017-03-03T07:55:33.355Z,304
2017-03-03T07:56:42.265Z,316
2017-03-03T07:57:51.199Z,316
2017-03-03T07:59:00.076Z,328
2017-03-03T08:00:09.003Z,332
2017-03-03T08:01:17.888Z,340
2017-03-03T08:02:26.773Z,364
2017-03-03T08:03:35.656Z,388
2017-03-03T08:04:44.542Z,392
2017-03-03T08:05:53.426Z,392
2017-03-03T08:07:02.342Z,392
2017-03-03T08:08:11.678Z,392
2017-03-03T08:09:20.563Z,388
2017-03-03T08:10:29.843Z,384
2017-03-03T08:11:38.728Z,380
2017-03-03T08:12:47.625Z,360
2017-03-03T08:13:56.625Z,344
2017-03-03T08:15:05.916Z,348
2017-03-03T08:16:14.809Z,356
2017-03-03T08:17:23.747Z,368
2017-03-03T08:18:32.637Z,388
2017-03-03T08:19:41.541Z,408
2017-03-03T08:20:50.842Z,424
2017-03-03T08:21:59.744Z,440
2017-03-03T08:23:08.669Z,448
2017-03-03T08:24:17.561Z,448
2017-03-03T08:25:26.445Z,444
2017-03-03T08:26:35.331Z,448
2017-03-03T08:27:44.239Z,464
2017-03-03T08:28:53.143Z,460
2017-03-03T08:30:02.044Z,432
2017-03-03T08:31:11.331Z,412
2017-03-03T08:32:20.209Z,396
2017-03-03T08:33:29.100Z,396
2017-03-03T08:34:37.993Z,404
2017-03-03T08:35:46.906Z,408
2017-03-03T08:36:56.216Z,416
2017-03-03T08:38:05.094Z,436
2017-03-03T08:39:13.991Z,448
2017-03-03T08:40:22.913Z,468
2017-03-03T08:41:31.848Z,492
2017-03-03T08:42:40.765Z,500
2017-03-03T08:43:49.677Z,504
2017-03-03T08:44:58.578Z,480
2017-03-03T08:46:07.565Z,476
2017-03-03T08:47:16.467Z,444
2017-03-03T08:48:25.342Z,424
2017-03-03T08:49:34.230Z,416
2017-03-03T08:50:43.169Z,424
2017-03-03T08:51:52.076Z,436
2017-03-03T08:53:00.958Z,448
2017-03-03T08:54:09.878Z,476
2017-03-03T08:55:18.770Z,488
2017-03-03T08:56:27.751Z,496
2017-03-03T08:57:36.674Z,504
2017-03-03T08:58:45.552Z,512
2017-03-03T08:59:54.443Z,508
2017-03-03T09:01:03.740Z,508
2017-03-03T09:02:12.644Z,524
2017-03-03T09:03:21.527Z,536
2017-03-03T09:04:30.417Z,568
2017-03-03T09:05:39.341Z,576
2017-03-03T09:06:48.221Z,560
2017-03-03T09:07:57.116Z,564
2017-03-03T09:09:06.026Z,556
2017-03-03T09:10:14.951Z,532
2017-03-03T09:11:23.829Z,500
2017-03-03T09:12:32.745Z,488
2017-03-03T09:13:41.634Z,484
2017-03-03T09:14:50.576Z,480
2017-03-03T09:15:59.869Z,484
2017-03-03T09:17:08.788Z,448
2017-03-03T09:18:17.682Z,440
2017-03-03T09:19:26.568Z,448
2017-03-03T09:20:35.464Z,444
2017-03-03T09:21:44.349Z,452
2017-03-03T09:22:53.661Z,468
2017-03-03T09:24:02.555Z,492
2017-03-03T09:25:11.436Z,492
2017-03-03T09:26:20.435Z,520
2017-03-03T09:27:29.456Z,556
2017-03-03T09:28:38.342Z,580
2017-03-03T09:29:47.238Z,596
2017-03-03T09:30:56.142Z,592
2017-03-03T09:32:05.568Z,552
2017-03-03T09:33:14.865Z,520
2017-03-03T09:34:23.803Z,548
2017-03-03T09:35:32.708Z,560
2017-03-03T09:36:41.626Z,540
2017-03-03T09:37:50.533Z,544
2017-03-03T09:38:59.478Z,512
2017-03-03T09:40:08.397Z,500
2017-03-03T09:41:17.303Z,500
2017-03-03T09:42:26.204Z,520
2017-03-03T09:43:35.119Z,508
2017-03-03T09:44:44.027Z,480
2017-03-03T09:45:52.916Z,460
2017-03-03T09:47:01.800Z,432
2017-03-03T09:48:10.799Z,452
2017-03-03T09:49:19.686Z,444
2017-03-03T09:50:28.579Z,444
2017-03-03T09:51:37.530Z,452
2017-03-03T09:52:46.458Z,464
2017-03-03T09:53:55.386Z,476
2017-03-03T09:55:04.831Z,464
2017-03-03T09:56:14.176Z,444
2017-03-03T09:57:23.099Z,440
2017-03-03T09:58:31.990Z,436
2017-03-03T09:59:40.904Z,456
2017-03-03T10:00:49.804Z,456
2017-03-03T10:01:58.706Z,472
2017-03-03T10:03:07.616Z,472
2017-03-03T10:04:16.528Z,468
2017-03-03T10:05:25.438Z,460
2017-03-03T10:06:34.336Z,452
2017-03-03T10:07:43.242Z,440
2017-03-03T10:08:52.158Z,448
2017-03-03T10:10:01.062Z,448
2017-03-03T10:11:09.988Z,428
2017-03-03T10:12:18.885Z,408
2017-03-03T10:13:27.792Z,412
2017-03-03T10:14:36.705Z,412
2017-03-03T10:15:45.626Z,412
2017-03-03T10:16:54.516Z,412
2017-03-03T10:18:03.421Z,412
2017-03-03T10:19:12.335Z,420
2017-03-03T10:20:21.230Z,412
2017-03-03T10:21:30.143Z,412
2017-03-03T10:22:39.052Z,408
2017-03-03T10:23:47.943Z,404
2017-03-03T10:24:56.835Z,400
2017-03-03T10:26:06.151Z,408
2017-03-03T10:27:15.076Z,416
2017-03-03T10:28:24.008Z,412
2017-03-03T10:29:32.899Z,408
2017-03-03T10:30:41.813Z,408
2017-03-03T10:31:50.717Z,420
2017-03-03T10:32:59.599Z,432
2017-03-03T10:34:08.482Z,448
2017-03-03T10:35:17.391Z,464
2017-03-03T10:36:26.277Z,472
2017-03-03T10:37:35.163Z,488
2017-03-03T10:38:44.045Z,496
2017-03-03T10:39:52.928Z,484
2017-03-03T10:41:01.844Z,488
2017-03-03T10:42:10.755Z,496
2017-03-03T10:43:19.632Z,492
2017-03-03T10:44:28.514Z,480
2017-03-03T10:45:37.430Z,496
2017-03-03T10:46:46.313Z,508
2017-03-03T10:47:55.215Z,504
2017-03-03T10:49:04.100Z,496
2017-03-03T10:50:12.980Z,488
2017-03-03T10:51:21.885Z,484
2017-03-03T10:52:30.794Z,484
2017-03-03T10:53:39.678Z,472
2017-03-03T10:54:48.569Z,472
2017-03-03T10:55:57.460Z,476
2017-03-03T10:57:06.346Z,468
2017-03-03T10:58:15.242Z,464
2017-03-03T10:59:24.129Z,456
2017-03-03T11:00:33.035Z,448
2017-03-03T11:01:41.922Z,452
2017-03-03T11:02:50.842Z,456
2017-03-03T11:03:59.747Z,452
2017-03-03T11:05:08.637Z,420
2017-03-03T11:06:17.546Z,408
2017-03-03T11:07:26.426Z,412
2017-03-03T11:08:35.324Z,412
2017-03-03T11:09:44.618Z,408
2017-03-03T11:10:53.526Z,424
2017-03-03T11:12:02.421Z,436
2017-03-03T11:13:11.308Z,428
2017-03-03T11:14:20.224Z,460
2017-03-03T11:15:29.118Z,464
2017-03-03T11:16:38.428Z,468
2017-03-03T11:17:47.335Z,472
2017-03-03T11:18:56.221Z,464
2017-03-03T11:20:05.139Z,472
2017-03-03T11:21:14.042Z,484
2017-03-03T11:22:22.937Z,492
2017-03-03T11:23:31.843Z,508
2017-03-03T11:24:40.741Z,520
2017-03-03T11:25:49.640Z,516
2017-03-03T11:26:58.513Z,524
2017-03-03T11:28:07.414Z,508
2017-03-03T11:29:16.298Z,488
2017-03-03T11:30:25.180Z,488
2017-03-03T11:31:34.068Z,504
2017-03-03T11:32:42.951Z,492
2017-03-03T11:33:51.836Z,476
2017-03-03T11:35:00.765Z,480
2017-03-03T11:36:09.682Z,468
2017-03-03T11:37:18.590Z,452
2017-03-03T11:38:27.497Z,440
2017-03-03T11:39:36.376Z,436
2017-03-03T11:40:45.323Z,456
2017-03-03T11:41:54.234Z,460
2017-03-03T11:43:03.135Z,452
2017-03-03T11:44:12.039Z,464
2017-03-03T11:45:20.922Z,456
2017-03-03T11:46:29.801Z,456
2017-03-03T11:47:38.696Z,440
2017-03-03T11:48:47.992Z,440
2017-03-03T11:49:56.886Z,420
2017-03-03T11:51:06.596Z,424
2017-03-03T11:52:15.470Z,420
2017-03-03T11:53:24.366Z,428
2017-03-03T11:54:33.245Z,432
2017-03-03T11:55:42.122Z,428
2017-03-03T11:56:51.822Z,440
2017-03-03T11:58:00.726Z,460
2017-03-03T11:59:09.620Z,460
2017-03-03T12:00:21.573Z,468
2017-03-03T12:01:30.463Z,472
2017-03-03T12:02:39.391Z,452
2017-03-03T12:03:48.301Z,440
2017-03-03T12:04:57.213Z,448
2017-03-03T12:06:06.124Z,440
2017-03-03T12:07:15.022Z,436
2017-03-03T12:08:23.915Z,432
2017-03-03T12:09:32.817Z,440
2017-03-03T12:10:41.727Z,448
2017-03-03T12:11:51.011Z,452
2017-03-03T12:12:59.917Z,448
2017-03-03T12:14:08.827Z,448
2017-03-03T12:15:17.706Z,452
2017-03-03T12:16:26.606Z,460
2017-03-03T12:17:35.516Z,464
2017-03-03T12:18:44.424Z,464
2017-03-03T12:19:53.331Z,460
2017-03-03T12:21:02.214Z,444
2017-03-03T12:22:11.118Z,440
2017-03-03T12:23:20.016Z,436
2017-03-03T12:24:28.933Z,436
2017-03-03T12:25:39.066Z,432
2017-03-03T12:26:47.980Z,436
2017-03-03T12:27:56.879Z,436
2017-03-03T12:29:06.204Z,428
2017-03-03T12:30:15.128Z,420
2017-03-03T12:31:24.055Z,420
2017-03-03T12:32:33.363Z,432
2017-03-03T12:33:42.250Z,428
2017-03-03T12:34:51.164Z,428
2017-03-03T12:36:00.070Z,416
2017-03-03T12:37:08.989Z,420
2017-03-03T12:38:17.907Z,432
2017-03-03T12:39:26.839Z,432
2017-03-03T12:40:35.760Z,432
2017-03-03T12:41:44.668Z,428
2017-03-03T12:42:53.571Z,432
2017-03-03T12:44:02.475Z,440
2017-03-03T12:45:11.352Z,448
2017-03-03T12:46:20.232Z,444
2017-03-03T12:47:29.135Z,440
2017-03-03T12:48:38.013Z,440
2017-03-03T12:49:46.906Z,432
2017-03-03T12:50:55.796Z,432
2017-03-03T12:52:04.740Z,440
2017-03-03T12:53:13.682Z,448
2017-03-03T12:54:22.588Z,468
2017-03-03T12:55:31.504Z,480
2017-03-03T12:56:40.811Z,484
2017-03-03T12:57:49.720Z,488
2017-03-03T12:58:58.645Z,504
2017-03-03T13:00:07.534Z,504
2017-03-03T13:01:16.436Z,516
2017-03-03T13:02:25.326Z,524
2017-03-03T13:03:34.261Z,524
2017-03-03T13:04:43.163Z,516
2017-03-03T13:05:52.048Z,508
2017-03-03T13:07:00.964Z,500
2017-03-03T13:08:10.274Z,500
2017-03-03T13:09:19.186Z,512
2017-03-03T13:10:28.136Z,520
2017-03-03T13:11:37.038Z,528
2017-03-03T13:12:45.922Z,540
2017-03-03T13:13:54.802Z,552
2017-03-03T13:15:03.691Z,548
2017-03-03T13:16:12.969Z,540
2017-03-03T13:17:21.886Z,544
2017-03-03T13:18:30.810Z,560
2017-03-03T13:19:39.727Z,564
2017-03-03T13:20:48.631Z,576
2017-03-03T13:21:57.520Z,580
2017-03-03T13:23:06.408Z,580
2017-03-03T13:24:15.292Z,560
2017-03-03T13:25:24.193Z,532
2017-03-03T13:26:33.072Z,544
2017-03-03T13:27:42.365Z,536
2017-03-03T13:28:51.317Z,524
2017-03-03T13:30:00.216Z,516
2017-03-03T13:31:09.149Z,508
2017-03-03T13:32:18.053Z,512
2017-03-03T13:33:26.952Z,508
2017-03-03T13:34:35.872Z,512
2017-03-03T13:35:44.776Z,508
2017-03-03T13:36:53.652Z,512
2017-03-03T13:38:02.566Z,520
2017-03-03T13:39:11.458Z,500
2017-03-03T13:40:20.355Z,484
2017-03-03T13:41:29.250Z,480
2017-03-03T13:42:38.133Z,484
2017-03-03T13:43:47.022Z,496
2017-03-03T13:44:55.931Z,516
2017-03-03T13:46:04.836Z,508
2017-03-03T13:47:14.159Z,508
2017-03-03T13:48:23.043Z,504
2017-03-03T13:49:31.929Z,500
2017-03-03T13:50:40.802Z,484
2017-03-03T13:51:49.686Z,472
2017-03-03T13:52:58.576Z,464
2017-03-03T13:54:07.885Z,464
2017-03-03T13:55:16.775Z,468
2017-03-03T13:56:25.671Z,468
2017-03-03T13:57:34.607Z,464
2017-03-03T13:58:43.522Z,460
2017-03-03T13:59:52.404Z,460
2017-03-03T14:01:01.310Z,444
2017-03-03T14:02:10.206Z,428
2017-03-03T14:03:19.133Z,424
2017-03-03T14:04:28.045Z,424
2017-03-03T14:05:37.339Z,432
2017-03-03T14:06:46.241Z,444
2017-03-03T14:07:55.134Z,456
2017-03-03T14:09:04.100Z,464
2017-03-03T14:10:12.981Z,464
2017-03-03T14:11:21.886Z,444
2017-03-03T14:12:30.823Z,436
2017-03-03T14:13:39.728Z,420
2017-03-03T14:14:48.640Z,408
2017-03-03T14:15:57.933Z,416
2017-03-03T14:17:06.867Z,416
2017-03-03T14:18:15.778Z,408
2017-03-03T14:19:24.670Z,392
2017-03-03T14:20:33.578Z,376
2017-03-03T14:21:42.481Z,384
2017-03-03T14:22:51.384Z,380
2017-03-03T14:24:00.294Z,372
2017-03-03T14:25:09.450Z,372
2017-03-03T14:26:18.332Z,340
2017-03-03T14:27:27.217Z,336
2017-03-03T14:28:36.130Z,344
2017-03-03T14:29:45.035Z,352
2017-03-03T14:30:53.921Z,368
2017-03-03T14:32:03.225Z,392
2017-03-03T14:33:12.122Z,408
2017-03-03T14:34:21.409Z,432
2017-03-03T14:35:30.313Z,452
2017-03-03T14:36:39.222Z,452
2017-03-03T14:37:48.130Z,472
2017-03-03T14:38:57.062Z,476
2017-03-03T14:40:06.376Z,468
2017-03-03T14:41:15.290Z,444
2017-03-03T14:42:24.175Z,436
2017-03-03T14:43:33.079Z,420
2017-03-03T14:44:41.964Z,412
2017-03-03T14:45:50.872Z,408
2017-03-03T14:46:59.766Z,408
2017-03-03T14:48:08.701Z,412
2017-03-03T14:49:17.607Z,416
2017-03-03T14:50:26.526Z,424
2017-03-03T14:51:35.430Z,424
2017-03-03T14:52:44.350Z,428
2017-03-03T14:53:53.251Z,444
2017-03-03T14:55:02.143Z,456
2017-03-03T14:56:11.741Z,444
2017-03-03T14:57:20.669Z,412
2017-03-03T14:58:29.986Z,436
2017-03-03T14:59:38.900Z,440
2017-03-03T15:00:48.195Z,428
2017-03-03T15:01:57.105Z,428
2017-03-03T15:03:06.009Z,416
2017-03-03T15:04:15.412Z,404
2017-03-03T15:05:24.388Z,412
2017-03-03T15:06:33.343Z,432
2017-03-03T15:07:42.256Z,452
2017-03-03T15:08:51.159Z,448
2017-03-03T15:10:01.554Z,432
2017-03-03T15:11:12.275Z,408
2017-03-03T15:12:21.175Z,420
2017-03-03T15:13:30.075Z,432
2017-03-03T15:14:38.958Z,448
2017-03-03T15:15:47.857Z,460
2017-03-03T15:16:56.761Z,460
2017-03-03T15:18:05.669Z,456
2017-03-03T15:19:14.610Z,460
2017-03-03T15:20:25.751Z,460
2017-03-03T15:21:34.729Z,472
2017-03-03T15:22:43.631Z,480
2017-03-03T15:23:53.284Z,484
2017-03-03T15:25:02.280Z,476
2017-03-03T15:26:14.063Z,472
2017-03-03T15:27:23.877Z,472
2017-03-03T15:28:32.784Z,464
2017-03-03T15:29:41.767Z,452
2017-03-03T15:30:54.734Z,452
2017-03-03T15:32:06.124Z,440
2017-03-03T15:33:16.301Z,424
2017-03-03T15:34:25.369Z,420
2017-03-03T15:35:34.655Z,428
2017-03-03T15:36:44.879Z,416
2017-03-03T15:37:56.020Z,396
2017-03-03T15:39:04.947Z,384
2017-03-03T15:40:13.847Z,348
2017-03-03T15:41:22.726Z,364
2017-03-03T15:42:31.612Z,344
2017-03-03T15:43:40.492Z,328
2017-03-03T15:44:49.408Z,324
2017-03-03T15:45:58.714Z,312
2017-03-03T15:47:09.152Z,304
2017-03-03T15:48:18.755Z,296
2017-03-03T15:49:28.590Z,280
2017-03-03T15:50:38.244Z,276
2017-03-03T15:51:47.152Z,264
2017-03-03T15:52:56.121Z,252
2017-03-03T15:54:05.056Z,244
2017-03-03T15:55:13.994Z,240
2017-03-03T15:56:22.877Z,236
2017-03-03T15:57:32.253Z,232
2017-03-03T15:58:43.796Z,220
2017-03-03T15:59:52.679Z,212
2017-03-03T16:01:01.589Z,204
2017-03-03T16:02:10.489Z,196
2017-03-03T16:03:19.402Z,188
2017-03-03T16:04:28.343Z,184
2017-03-03T16:05:37.284Z,176
2017-03-03T16:06:46.572Z,168
2017-03-03T16:07:55.485Z,164
2017-03-03T16:09:04.789Z,164
2017-03-03T16:10:13.727Z,156
2017-03-03T16:11:22.612Z,156
2017-03-03T16:12:31.506Z,152
2017-03-03T16:13:40.390Z,144
2017-03-03T16:14:50.087Z,144
2017-03-03T16:15:58.987Z,140